sensor_id;sensor_type;location;lat;lon;timestamp;temperature;humidity
28725;DHT22;43472;48.980;9.646;2023-02-11T00:02:51;0.60;99.90
28725;DHT22;43472;48.980;9.646;2023-02-11T00:07:53;0.70;99.90
28725;DHT22;43472;48.980;9.646;2023-02-11T00:12:55;0.60;99.90
28725;DHT22;43472;48.980;9.646;2023-02-11T00:17:57;0.60;99.90
28725;DHT22;43472;48.980;9.646;2023-02-11T00:22:59;0.50;99.90
28725;DHT22;43472;48.980;9.646;2023-02-11T00:28:01;0.50;99.90
28725;DHT22;43472;48.980;9.646;2023-02-11T00:33:03;0.50;99.90
28725;DHT22;43472;48.980;9.646;2023-02-11T00:38:05;0.50;99.90
28725;DHT22;43472;48.980;9.646;2023-02-11T00:43:07;0.40;99.90
28725;DHT22;43472;48.980;9.646;2023-02-11T00:48:09;0.40;99.90
28725;DHT22;43472;48.980;9.646;2023-02-11T00:53:11;0.50;99.90
28725;DHT22;43472;48.980;9.646;2023-02-11T00:58:13;0.50;99.90
28725;DHT22;43472;48.980;9.646;2023-02-11T01:03:15;0.40;99.90
28725;DHT22;43472;48.980;9.646;2023-02-11T01:08:16;0.40;99.90
28725;DHT22;43472;48.980;9.646;2023-02-11T01:13:18;0.30;99.90
28725;DHT22;43472;48.980;9.646;2023-02-11T01:18:20;0.40;99.90
28725;DHT22;43472;48.980;9.646;2023-02-11T01:23:22;0.40;99.90
28725;DHT22;43472;48.980;9.646;2023-02-11T01:28:26;0.30;99.90
28725;DHT22;43472;48.980;9.646;2023-02-11T01:33:29;0.20;99.90
28725;DHT22;43472;48.980;9.646;2023-02-11T01:38:31;0.30;99.90
28725;DHT22;43472;48.980;9.646;2023-02-11T01:43:37;0.20;99.90
28725;DHT22;43472;48.980;9.646;2023-02-11T01:48:46;0.30;99.90
28725;DHT22;43472;48.980;9.646;2023-02-11T01:53:50;0.20;99.90
28725;DHT22;43472;48.980;9.646;2023-02-11T01:59:16;0.60;99.90
28725;DHT22;43472;48.980;9.646;2023-02-11T02:04:20;0.30;99.90
28725;DHT22;43472;48.980;9.646;2023-02-11T02:09:26;0.40;99.90
28725;DHT22;43472;48.980;9.646;2023-02-11T02:14:29;0.30;99.90
28725;DHT22;43472;48.980;9.646;2023-02-11T02:35:41;0.60;99.90
28725;DHT22;43472;48.980;9.646;2023-02-11T02:40:55;0.50;99.90
28725;DHT22;43472;48.980;9.646;2023-02-11T02:46:19;0.80;99.90
28725;DHT22;43472;48.980;9.646;2023-02-11T03:07:21;0.90;99.90
28725;DHT22;43472;48.980;9.646;2023-02-11T03:12:29;0.90;99.90
28725;DHT22;43472;48.980;9.646;2023-02-11T03:17:34;1.00;99.90
28725;DHT22;43472;48.980;9.646;2023-02-11T03:23:02;1.10;99.90
28725;DHT22;43472;48.980;9.646;2023-02-11T03:28:13;1.20;99.90
28725;DHT22;43472;48.980;9.646;2023-02-11T03:33:24;1.20;99.90
28725;DHT22;43472;48.980;9.646;2023-02-11T03:38:36;1.10;99.90
28725;DHT22;43472;48.980;9.646;2023-02-11T03:43:46;1.10;99.90
28725;DHT22;43472;48.980;9.646;2023-02-11T03:48:52;1.30;99.90
28725;DHT22;43472;48.980;9.646;2023-02-11T03:53:58;1.30;99.90
28725;DHT22;43472;48.980;9.646;2023-02-11T03:59:02;1.40;99.90
28725;DHT22;43472;48.980;9.646;2023-02-11T04:04:04;1.40;99.90
28725;DHT22;43472;48.980;9.646;2023-02-11T04:09:06;1.50;99.90
28725;DHT22;43472;48.980;9.646;2023-02-11T04:14:08;1.50;99.90
28725;DHT22;43472;48.980;9.646;2023-02-11T04:19:10;1.50;99.90
28725;DHT22;43472;48.980;9.646;2023-02-11T04:24:11;1.50;99.90
28725;DHT22;43472;48.980;9.646;2023-02-11T04:29:13;1.60;99.90
28725;DHT22;43472;48.980;9.646;2023-02-11T04:34:15;1.50;99.90
28725;DHT22;43472;48.980;9.646;2023-02-11T04:39:18;1.60;99.90
28725;DHT22;43472;48.980;9.646;2023-02-11T04:44:20;1.60;99.90
28725;DHT22;43472;48.980;9.646;2023-02-11T04:49:22;1.70;99.90
28725;DHT22;43472;48.980;9.646;2023-02-11T04:54:24;1.70;99.90
28725;DHT22;43472;48.980;9.646;2023-02-11T04:59:26;1.60;99.90
28725;DHT22;43472;48.980;9.646;2023-02-11T05:04:28;1.70;99.90
28725;DHT22;43472;48.980;9.646;2023-02-11T05:09:30;1.70;99.90
28725;DHT22;43472;48.980;9.646;2023-02-11T05:14:31;1.70;99.90
28725;DHT22;43472;48.980;9.646;2023-02-11T05:19:34;1.80;99.90
28725;DHT22;43472;48.980;9.646;2023-02-11T05:24:35;1.70;99.90
28725;DHT22;43472;48.980;9.646;2023-02-11T05:29:37;1.60;99.90
28725;DHT22;43472;48.980;9.646;2023-02-11T05:34:39;1.80;99.90
28725;DHT22;43472;48.980;9.646;2023-02-11T05:39:41;2.00;99.90
28725;DHT22;43472;48.980;9.646;2023-02-11T05:44:43;1.90;99.90
28725;DHT22;43472;48.980;9.646;2023-02-11T05:49:45;1.90;99.90
28725;DHT22;43472;48.980;9.646;2023-02-11T05:54:47;1.70;99.90
28725;DHT22;43472;48.980;9.646;2023-02-11T05:59:49;2.00;99.90
28725;DHT22;43472;48.980;9.646;2023-02-11T06:04:51;1.80;99.90
28725;DHT22;43472;48.980;9.646;2023-02-11T06:09:53;1.90;99.90
28725;DHT22;43472;48.980;9.646;2023-02-11T06:14:55;1.90;99.90
28725;DHT22;43472;48.980;9.646;2023-02-11T06:19:57;1.90;99.90
28725;DHT22;43472;48.980;9.646;2023-02-11T06:24:59;2.00;99.90
28725;DHT22;43472;48.980;9.646;2023-02-11T06:30:04;2.00;99.90
28725;DHT22;43472;48.980;9.646;2023-02-11T06:35:07;2.00;99.90
28725;DHT22;43472;48.980;9.646;2023-02-11T06:40:12;2.00;99.90
28725;DHT22;43472;48.980;9.646;2023-02-11T06:45:14;2.00;99.90
28725;DHT22;43472;48.980;9.646;2023-02-11T06:50:16;2.10;99.90
28725;DHT22;43472;48.980;9.646;2023-02-11T06:55:18;2.10;99.90
28725;DHT22;43472;48.980;9.646;2023-02-11T07:00:20;2.10;99.90
28725;DHT22;43472;48.980;9.646;2023-02-11T07:05:22;2.30;99.90
28725;DHT22;43472;48.980;9.646;2023-02-11T07:10:24;2.20;99.90
28725;DHT22;43472;48.980;9.646;2023-02-11T07:15:26;2.20;99.90
28725;DHT22;43472;48.980;9.646;2023-02-11T07:20:28;2.30;99.90
28725;DHT22;43472;48.980;9.646;2023-02-11T07:25:31;2.40;99.90
28725;DHT22;43472;48.980;9.646;2023-02-11T07:30:33;2.50;99.90
28725;DHT22;43472;48.980;9.646;2023-02-11T07:35:34;2.50;99.90
28725;DHT22;43472;48.980;9.646;2023-02-11T07:40:37;2.60;99.90
28725;DHT22;43472;48.980;9.646;2023-02-11T07:45:39;2.60;99.90
28725;DHT22;43472;48.980;9.646;2023-02-11T07:50:40;2.70;99.90
28725;DHT22;43472;48.980;9.646;2023-02-11T07:55:42;2.60;99.90
28725;DHT22;43472;48.980;9.646;2023-02-11T08:00:44;2.80;99.90
28725;DHT22;43472;48.980;9.646;2023-02-11T08:05:47;2.90;99.90
28725;DHT22;43472;48.980;9.646;2023-02-11T08:10:49;2.90;99.90
28725;DHT22;43472;48.980;9.646;2023-02-11T08:15:51;3.10;99.90
28725;DHT22;43472;48.980;9.646;2023-02-11T08:20:53;2.90;99.90
28725;DHT22;43472;48.980;9.646;2023-02-11T08:25:59;3.20;99.90
28725;DHT22;43472;48.980;9.646;2023-02-11T08:31:08;3.50;99.90
28725;DHT22;43472;48.980;9.646;2023-02-11T08:36:22;3.50;99.90
28725;DHT22;43472;48.980;9.646;2023-02-11T08:41:25;3.80;99.90
28725;DHT22;43472;48.980;9.646;2023-02-11T08:46:27;3.90;99.90
28725;DHT22;43472;48.980;9.646;2023-02-11T08:51:29;4.20;99.90
28725;DHT22;43472;48.980;9.646;2023-02-11T08:56:32;4.60;99.90
28725;DHT22;43472;48.980;9.646;2023-02-11T09:01:34;5.20;99.90
28725;DHT22;43472;48.980;9.646;2023-02-11T09:06:36;4.80;99.90
28725;DHT22;43472;48.980;9.646;2023-02-11T09:11:39;4.90;99.90
28725;DHT22;43472;48.980;9.646;2023-02-11T09:16:42;6.00;99.90
28725;DHT22;43472;48.980;9.646;2023-02-11T09:21:44;6.90;99.90
28725;DHT22;43472;48.980;9.646;2023-02-11T09:26:47;7.90;99.90
28725;DHT22;43472;48.980;9.646;2023-02-11T09:31:50;8.70;99.60
28725;DHT22;43472;48.980;9.646;2023-02-11T09:36:53;9.80;98.40
28725;DHT22;43472;48.980;9.646;2023-02-11T09:47:28;8.50;99.00
28725;DHT22;43472;48.980;9.646;2023-02-11T09:57:43;8.30;99.20
28725;DHT22;43472;48.980;9.646;2023-02-11T10:08:23;8.50;98.40
28725;DHT22;43472;48.980;9.646;2023-02-11T10:19:05;8.90;97.80
28725;DHT22;43472;48.980;9.646;2023-02-11T10:24:14;8.70;98.30
28725;DHT22;43472;48.980;9.646;2023-02-11T10:29:30;8.00;98.90
28725;DHT22;43472;48.980;9.646;2023-02-11T10:34:40;8.20;99.30
28725;DHT22;43472;48.980;9.646;2023-02-11T10:39:42;8.70;99.90
28725;DHT22;43472;48.980;9.646;2023-02-11T10:44:57;7.60;99.90
28725;DHT22;43472;48.980;9.646;2023-02-11T10:49:59;8.60;99.70
28725;DHT22;43472;48.980;9.646;2023-02-11T10:55:14;8.80;99.40
28725;DHT22;43472;48.980;9.646;2023-02-11T11:00:32;8.70;99.40
28725;DHT22;43472;48.980;9.646;2023-02-11T11:05:47;8.40;99.80
28725;DHT22;43472;48.980;9.646;2023-02-11T11:11:05;8.80;99.90
28725;DHT22;43472;48.980;9.646;2023-02-11T11:21:20;11.80;95.70
28725;DHT22;43472;48.980;9.646;2023-02-11T11:26:25;11.60;95.80
28725;DHT22;43472;48.980;9.646;2023-02-11T11:31:35;12.30;95.70
28725;DHT22;43472;48.980;9.646;2023-02-11T11:36:45;11.60;95.10
28725;DHT22;43472;48.980;9.646;2023-02-11T11:41:50;14.20;92.40
28725;DHT22;43472;48.980;9.646;2023-02-11T11:52:19;14.70;88.50
28725;DHT22;43472;48.980;9.646;2023-02-11T11:57:27;14.10;89.70
28725;DHT22;43472;48.980;9.646;2023-02-11T12:02:45;15.30;88.50
28725;DHT22;43472;48.980;9.646;2023-02-11T12:35:40;11.60;93.30
28725;DHT22;43472;48.980;9.646;2023-02-11T12:46:47;10.90;95.00
28725;DHT22;43472;48.980;9.646;2023-02-11T12:52:29;11.20;94.60
28725;DHT22;43472;48.980;9.646;2023-02-11T12:57:34;11.20;94.80
28725;DHT22;43472;48.980;9.646;2023-02-11T13:24:11;12.80;93.40
28725;DHT22;43472;48.980;9.646;2023-02-11T13:29:28;13.10;92.90
28725;DHT22;43472;48.980;9.646;2023-02-11T13:40:37;13.70;92.00
28725;DHT22;43472;48.980;9.646;2023-02-11T13:50:48;11.30;94.90
28725;DHT22;43472;48.980;9.646;2023-02-11T13:56:04;11.30;95.50
28725;DHT22;43472;48.980;9.646;2023-02-11T14:01:08;10.70;96.00
28725;DHT22;43472;48.980;9.646;2023-02-11T14:06:15;10.70;96.30
28725;DHT22;43472;48.980;9.646;2023-02-11T14:27:23;11.00;96.40
28725;DHT22;43472;48.980;9.646;2023-02-11T14:37:57;10.90;96.10
28725;DHT22;43472;48.980;9.646;2023-02-11T14:43:20;10.90;96.30
28725;DHT22;43472;48.980;9.646;2023-02-11T14:48:33;10.90;96.40
28725;DHT22;43472;48.980;9.646;2023-02-11T14:53:43;11.10;96.10
28725;DHT22;43472;48.980;9.646;2023-02-11T14:58:49;11.40;95.70
28725;DHT22;43472;48.980;9.646;2023-02-11T15:03:52;11.50;95.30
28725;DHT22;43472;48.980;9.646;2023-02-11T15:09:02;10.80;95.70
28725;DHT22;43472;48.980;9.646;2023-02-11T15:14:22;10.90;95.20
28725;DHT22;43472;48.980;9.646;2023-02-11T15:19:28;10.90;95.60
28725;DHT22;43472;48.980;9.646;2023-02-11T15:24:35;10.60;95.50
28725;DHT22;43472;48.980;9.646;2023-02-11T15:29:39;10.40;96.00
28725;DHT22;43472;48.980;9.646;2023-02-11T15:34:43;10.60;96.80
28725;DHT22;43472;48.980;9.646;2023-02-11T15:39:45;10.40;97.10
28725;DHT22;43472;48.980;9.646;2023-02-11T15:44:49;9.90;97.10
28725;DHT22;43472;48.980;9.646;2023-02-11T15:50:20;9.80;97.40
28725;DHT22;43472;48.980;9.646;2023-02-11T15:55:23;9.60;97.70
28725;DHT22;43472;48.980;9.646;2023-02-11T16:00:37;9.50;97.90
28725;DHT22;43472;48.980;9.646;2023-02-11T16:05:45;9.50;97.90
28725;DHT22;43472;48.980;9.646;2023-02-11T16:10:55;9.50;98.20
28725;DHT22;43472;48.980;9.646;2023-02-11T16:16:04;9.30;98.40
28725;DHT22;43472;48.980;9.646;2023-02-11T16:21:18;9.20;98.50
28725;DHT22;43472;48.980;9.646;2023-02-11T16:31:35;9.10;98.90
28725;DHT22;43472;48.980;9.646;2023-02-11T16:36:37;9.10;99.20
28725;DHT22;43472;48.980;9.646;2023-02-11T16:41:39;8.90;99.40
28725;DHT22;43472;48.980;9.646;2023-02-11T16:46:42;8.90;99.60
28725;DHT22;43472;48.980;9.646;2023-02-11T16:51:49;8.90;99.90
28725;DHT22;43472;48.980;9.646;2023-02-11T16:56:51;8.90;99.90
28725;DHT22;43472;48.980;9.646;2023-02-11T17:01:53;8.80;99.90
28725;DHT22;43472;48.980;9.646;2023-02-11T17:06:55;9.10;99.90
28725;DHT22;43472;48.980;9.646;2023-02-11T17:12:02;8.60;99.90
28725;DHT22;43472;48.980;9.646;2023-02-11T17:17:04;8.50;99.90
28725;DHT22;43472;48.980;9.646;2023-02-11T17:22:06;8.50;99.90
28725;DHT22;43472;48.980;9.646;2023-02-11T17:27:10;8.50;99.90
28725;DHT22;43472;48.980;9.646;2023-02-11T17:32:12;8.40;99.90
28725;DHT22;43472;48.980;9.646;2023-02-11T17:37:15;8.40;99.90
28725;DHT22;43472;48.980;9.646;2023-02-11T17:42:16;8.30;99.90
28725;DHT22;43472;48.980;9.646;2023-02-11T17:47:20;8.30;99.90
28725;DHT22;43472;48.980;9.646;2023-02-11T17:52:22;8.30;99.90
28725;DHT22;43472;48.980;9.646;2023-02-11T17:57:25;8.10;99.90
28725;DHT22;43472;48.980;9.646;2023-02-11T18:02:27;8.10;99.90
28725;DHT22;43472;48.980;9.646;2023-02-11T18:07:29;8.10;99.90
28725;DHT22;43472;48.980;9.646;2023-02-11T18:12:31;8.00;99.90
28725;DHT22;43472;48.980;9.646;2023-02-11T18:17:34;7.90;99.90
28725;DHT22;43472;48.980;9.646;2023-02-11T18:22:36;7.80;99.90
28725;DHT22;43472;48.980;9.646;2023-02-11T18:27:41;7.80;99.90
28725;DHT22;43472;48.980;9.646;2023-02-11T18:32:44;7.80;99.90
28725;DHT22;43472;48.980;9.646;2023-02-11T18:37:46;7.80;99.90
28725;DHT22;43472;48.980;9.646;2023-02-11T18:42:48;7.60;99.90
28725;DHT22;43472;48.980;9.646;2023-02-11T18:47:50;7.70;99.90
28725;DHT22;43472;48.980;9.646;2023-02-11T18:52:52;7.60;99.90
28725;DHT22;43472;48.980;9.646;2023-02-11T18:57:54;7.60;99.90
28725;DHT22;43472;48.980;9.646;2023-02-11T19:02:58;7.60;99.90
28725;DHT22;43472;48.980;9.646;2023-02-11T19:08:01;7.90;99.90
28725;DHT22;43472;48.980;9.646;2023-02-11T19:13:03;8.60;99.90
28725;DHT22;43472;48.980;9.646;2023-02-11T19:18:08;7.50;99.90
28725;DHT22;43472;48.980;9.646;2023-02-11T19:23:10;7.50;99.90
28725;DHT22;43472;48.980;9.646;2023-02-11T19:28:12;7.50;99.90
28725;DHT22;43472;48.980;9.646;2023-02-11T19:33:15;7.40;99.90
28725;DHT22;43472;48.980;9.646;2023-02-11T19:43:23;7.50;99.90
28725;DHT22;43472;48.980;9.646;2023-02-11T19:48:26;7.10;99.90
28725;DHT22;43472;48.980;9.646;2023-02-11T19:53:28;7.20;99.90
28725;DHT22;43472;48.980;9.646;2023-02-11T19:58:31;7.10;99.90
28725;DHT22;43472;48.980;9.646;2023-02-11T20:03:33;7.20;99.90
28725;DHT22;43472;48.980;9.646;2023-02-11T20:08:35;7.10;99.90
28725;DHT22;43472;48.980;9.646;2023-02-11T20:13:38;7.10;99.90
28725;DHT22;43472;48.980;9.646;2023-02-11T20:23:44;7.10;99.90
28725;DHT22;43472;48.980;9.646;2023-02-11T20:28:48;7.10;99.90
28725;DHT22;43472;48.980;9.646;2023-02-11T20:33:50;7.70;99.90
28725;DHT22;43472;48.980;9.646;2023-02-11T20:38:53;7.10;99.90
28725;DHT22;43472;48.980;9.646;2023-02-11T20:43:58;7.10;99.90
28725;DHT22;43472;48.980;9.646;2023-02-11T20:49:00;7.10;99.90
28725;DHT22;43472;48.980;9.646;2023-02-11T20:54:02;6.90;99.90
28725;DHT22;43472;48.980;9.646;2023-02-11T20:59:05;6.80;99.90
28725;DHT22;43472;48.980;9.646;2023-02-11T21:04:14;6.80;99.90
28725;DHT22;43472;48.980;9.646;2023-02-11T21:09:19;6.90;99.90
28725;DHT22;43472;48.980;9.646;2023-02-11T21:14:25;6.90;99.90
28725;DHT22;43472;48.980;9.646;2023-02-11T21:19:30;6.90;99.90
28725;DHT22;43472;48.980;9.646;2023-02-11T21:24:32;6.90;99.90
28725;DHT22;43472;48.980;9.646;2023-02-11T21:29:34;6.90;99.90
28725;DHT22;43472;48.980;9.646;2023-02-11T21:34:53;6.90;99.90
28725;DHT22;43472;48.980;9.646;2023-02-11T21:39:55;6.80;99.90
28725;DHT22;43472;48.980;9.646;2023-02-11T21:44:57;6.80;99.90
28725;DHT22;43472;48.980;9.646;2023-02-11T21:50:00;6.90;99.90
28725;DHT22;43472;48.980;9.646;2023-02-11T21:55:05;6.80;99.90
28725;DHT22;43472;48.980;9.646;2023-02-11T22:00:08;6.70;99.90
28725;DHT22;43472;48.980;9.646;2023-02-11T22:05:11;6.70;99.90
28725;DHT22;43472;48.980;9.646;2023-02-11T22:10:13;6.60;99.90
28725;DHT22;43472;48.980;9.646;2023-02-11T22:15:15;6.70;99.90
28725;DHT22;43472;48.980;9.646;2023-02-11T22:20:18;6.60;99.90
28725;DHT22;43472;48.980;9.646;2023-02-11T22:25:20;6.50;99.90
28725;DHT22;43472;48.980;9.646;2023-02-11T22:30:22;6.60;99.90
28725;DHT22;43472;48.980;9.646;2023-02-11T22:35:24;6.80;99.90
28725;DHT22;43472;48.980;9.646;2023-02-11T22:40:27;6.70;99.90
28725;DHT22;43472;48.980;9.646;2023-02-11T22:45:29;6.70;99.90
28725;DHT22;43472;48.980;9.646;2023-02-11T22:50:30;8.00;99.90
28725;DHT22;43472;48.980;9.646;2023-02-11T22:55:37;6.70;99.90
28725;DHT22;43472;48.980;9.646;2023-02-11T23:00:40;6.80;99.90
28725;DHT22;43472;48.980;9.646;2023-02-11T23:05:43;6.60;99.90
28725;DHT22;43472;48.980;9.646;2023-02-11T23:10:45;6.50;99.90
28725;DHT22;43472;48.980;9.646;2023-02-11T23:20:50;6.60;99.90
28725;DHT22;43472;48.980;9.646;2023-02-11T23:25:52;6.40;99.90
28725;DHT22;43472;48.980;9.646;2023-02-11T23:30:55;8.10;99.90
28725;DHT22;43472;48.980;9.646;2023-02-11T23:35:57;6.50;99.90
28725;DHT22;43472;48.980;9.646;2023-02-11T23:41:01;6.50;99.90
28725;DHT22;43472;48.980;9.646;2023-02-11T23:46:04;6.50;99.90
28725;DHT22;43472;48.980;9.646;2023-02-11T23:51:06;6.60;99.90
28725;DHT22;43472;48.980;9.646;2023-02-11T23:56:15;6.60;99.90
